createdAt,value
2022-09-03T00:00:18.982Z,24.27
2022-09-03T00:02:26.877Z,17.35
2022-09-03T00:04:41.049Z,19.65
2022-09-03T00:06:49.261Z,18.52
2022-09-03T00:09:14.619Z,17.63
2022-09-03T00:11:20.901Z,19.42
2022-09-03T00:13:35.602Z,16.08
2022-09-03T00:15:40.011Z,18.00
2022-09-03T00:18:05.754Z,16.55
2022-09-03T00:20:18.951Z,16.33
2022-09-03T00:22:27.592Z,16.63
2022-09-03T00:24:34.498Z,13.35
2022-09-03T00:26:37.828Z,15.23
2022-09-03T00:28:45.109Z,12.55
2022-09-03T00:30:57.297Z,13.40
2022-09-03T00:33:10.652Z,13.45
2022-09-03T00:35:36.028Z,13.30
2022-09-03T00:37:38.193Z,13.65
2022-09-03T00:39:40.278Z,12.82
2022-09-03T00:42:21.061Z,13.35
2022-09-03T00:44:48.337Z,10.00
2022-09-03T00:47:11.484Z,10.70
2022-09-03T00:49:31.171Z,9.27
2022-09-03T00:52:00.757Z,8.75
2022-09-03T00:54:27.200Z,7.03
2022-09-03T00:56:49.884Z,10.15
2022-09-03T00:59:06.135Z,10.63
2022-09-03T01:01:21.845Z,8.95
2022-09-03T01:03:36.252Z,8.70
2022-09-03T01:06:20.176Z,6.97
2022-09-03T01:08:51.149Z,6.95
2022-09-03T01:11:35.272Z,7.72
2022-09-03T01:13:41.779Z,8.98
2022-09-03T01:16:05.802Z,8.93
2022-09-03T01:18:21.389Z,8.45
2022-09-03T01:20:39.137Z,20.63
2022-09-03T01:22:58.727Z,12.02
2022-09-03T01:25:14.070Z,8.68
2022-09-03T01:27:32.755Z,8.02
2022-09-03T01:29:40.154Z,11.07
2022-09-03T01:32:00.075Z,13.02
2022-09-03T01:34:13.530Z,21.02
2022-09-03T01:36:34.657Z,12.52
2022-09-03T01:38:48.040Z,10.55
2022-09-03T01:41:24.477Z,10.50
2022-09-03T01:43:44.705Z,12.07
2022-09-03T01:45:54.295Z,8.75
2022-09-03T01:50:40.528Z,11.43
2022-09-03T01:52:55.381Z,10.43
2022-09-03T01:55:10.021Z,12.57
2022-09-03T01:57:42.833Z,16.67
2022-09-03T01:59:49.899Z,14.98
2022-09-03T02:02:20.141Z,16.52
2022-09-03T02:04:24.970Z,13.45
2022-09-03T02:06:27.789Z,12.25
2022-09-03T02:08:30.195Z,12.50
2022-09-03T02:10:44.153Z,11.75
2022-09-03T02:12:49.681Z,10.50
2022-09-03T02:14:51.287Z,12.55
2022-09-03T02:16:53.011Z,10.25
2022-09-03T02:18:57.011Z,9.15
2022-09-03T02:20:59.319Z,12.35
2022-09-03T02:23:00.996Z,15.18
2022-09-03T02:25:02.621Z,17.17
2022-09-03T02:27:04.519Z,10.85
2022-09-03T02:29:06.074Z,10.50
2022-09-03T02:31:07.999Z,11.90
2022-09-03T02:33:09.840Z,13.73
2022-09-03T02:35:11.442Z,15.70
2022-09-03T02:37:15.621Z,15.38
2022-09-03T02:39:17.562Z,15.02
2022-09-03T02:41:19.561Z,13.90
2022-09-03T02:43:32.959Z,11.55
2022-09-03T02:45:37.407Z,17.42
2022-09-03T02:47:40.912Z,13.50
2022-09-03T02:49:42.531Z,16.40
2022-09-03T02:51:45.085Z,16.23
2022-09-03T02:53:46.694Z,16.58
2022-09-03T02:55:48.500Z,14.05
2022-09-03T02:57:50.280Z,19.90
2022-09-03T02:59:51.812Z,12.43
2022-09-03T03:01:53.603Z,15.65
2022-09-03T03:03:55.324Z,17.40
2022-09-03T03:05:59.094Z,11.35
2022-09-03T03:08:01.502Z,11.43
2022-09-03T03:10:03.361Z,9.45
2022-09-03T03:12:05.364Z,11.77
2022-09-03T03:14:06.957Z,11.57
2022-09-03T03:16:08.505Z,10.82
2022-09-03T03:18:14.141Z,14.18
2022-09-03T03:20:15.708Z,10.98
2022-09-03T03:22:17.257Z,13.35
2022-09-03T03:24:18.971Z,13.52
2022-09-03T03:26:21.508Z,13.18
2022-09-03T03:28:23.175Z,12.60
2022-09-03T03:30:24.780Z,15.13
2022-09-03T03:32:26.935Z,14.88
2022-09-03T03:34:28.531Z,11.40
2022-09-03T03:36:32.476Z,12.10
2022-09-03T03:38:34.711Z,14.98
2022-09-03T03:40:38.625Z,15.85
2022-09-03T03:42:40.152Z,13.80
2022-09-03T03:44:44.001Z,14.02
2022-09-03T03:46:45.627Z,13.68
2022-09-03T03:48:51.528Z,13.95
2022-09-03T03:50:53.503Z,12.77
2022-09-03T03:52:55.095Z,11.40
2022-09-03T03:54:57.333Z,13.85
2022-09-03T03:56:58.897Z,15.50
2022-09-03T03:59:00.733Z,17.55
2022-09-03T04:01:07.579Z,17.73
2022-09-03T04:03:09.183Z,15.43
2022-09-03T04:05:10.829Z,12.68
2022-09-03T04:07:13.242Z,14.82
2022-09-03T04:09:14.796Z,11.95
2022-09-03T04:11:18.873Z,19.38
2022-09-03T04:13:20.705Z,19.60
2022-09-03T04:15:22.253Z,17.25
2022-09-03T04:17:25.404Z,19.17
2022-09-03T04:19:30.304Z,15.32
2022-09-03T04:21:31.876Z,10.80
2022-09-03T04:23:34.699Z,14.68
2022-09-03T04:25:36.871Z,9.93
2022-09-03T04:27:38.483Z,12.27
2022-09-03T04:29:40.049Z,10.02
2022-09-03T04:32:01.586Z,10.93
2022-09-03T04:34:03.511Z,9.57
2022-09-03T04:36:10.814Z,11.73
2022-09-03T04:38:12.392Z,10.18
2022-09-03T04:40:14.157Z,12.90
2022-09-03T04:42:16.298Z,11.23
2022-09-03T04:44:17.836Z,14.25
2022-09-03T04:46:20.921Z,13.43
2022-09-03T04:48:22.605Z,13.43
2022-09-03T04:50:24.229Z,13.98
2022-09-03T04:52:30.113Z,15.95
2022-09-03T04:54:31.691Z,11.57
2022-09-03T04:56:35.302Z,9.90
2022-09-03T04:58:36.833Z,11.27
2022-09-03T05:00:40.313Z,11.27
2022-09-03T05:02:41.951Z,11.95
2022-09-03T05:04:43.533Z,8.15
2022-09-03T05:06:45.441Z,9.10
2022-09-03T05:08:51.238Z,10.93
2022-09-03T05:11:00.262Z,11.27
2022-09-03T05:13:04.879Z,13.52
2022-09-03T05:15:06.870Z,15.10
2022-09-03T05:17:08.398Z,20.73
2022-09-03T05:19:10.792Z,10.43
2022-09-03T05:21:15.106Z,12.15
2022-09-03T05:23:16.834Z,12.90
2022-09-03T05:25:19.089Z,20.33
2022-09-03T05:27:20.901Z,12.50
2022-09-03T05:29:22.897Z,7.40
2022-09-03T05:31:26.459Z,10.40
2022-09-03T05:33:28.364Z,6.05
2022-09-03T05:35:30.377Z,6.30
2022-09-03T05:37:32.137Z,5.68
2022-09-03T05:39:33.789Z,7.30
2022-09-03T05:41:35.446Z,6.22
2022-09-03T05:43:37.570Z,8.77
2022-09-03T05:45:39.505Z,8.38
2022-09-03T05:47:41.159Z,6.80
2022-09-03T05:49:42.727Z,8.27
2022-09-03T05:51:44.571Z,6.28
2022-09-03T05:53:47.741Z,7.10
2022-09-03T05:55:58.876Z,8.23
2022-09-03T05:58:00.477Z,8.25
2022-09-03T06:00:02.312Z,9.43
2022-09-03T06:02:04.010Z,6.53
2022-09-03T06:04:11.286Z,5.78
2022-09-03T06:06:16.355Z,9.82
2022-09-03T06:08:17.898Z,9.88
2022-09-03T06:10:25.005Z,6.60
2022-09-03T06:12:27.843Z,6.90
2022-09-03T06:14:29.556Z,8.35
2022-09-03T06:16:32.866Z,7.35
2022-09-03T06:18:34.618Z,7.05
2022-09-03T06:20:37.389Z,7.78
2022-09-03T06:22:39.149Z,7.78
2022-09-03T06:24:40.728Z,7.85
2022-09-03T06:26:43.014Z,10.00
2022-09-03T06:28:44.923Z,8.95
2022-09-03T06:30:48.086Z,12.82
2022-09-03T06:32:50.680Z,12.98
2022-09-03T06:34:52.217Z,7.78
2022-09-03T06:36:54.717Z,7.45
2022-09-03T06:38:56.912Z,7.63
2022-09-03T06:41:04.315Z,13.65
2022-09-03T06:43:05.844Z,6.13
2022-09-03T06:45:12.102Z,6.55
2022-09-03T06:47:13.906Z,8.15
2022-09-03T06:49:15.695Z,8.48
2022-09-03T06:51:19.988Z,9.02
2022-09-03T06:53:23.796Z,4.70
2022-09-03T06:55:31.698Z,9.35
2022-09-03T06:57:33.365Z,10.93
2022-09-03T06:59:34.932Z,8.40
2022-09-03T07:01:43.744Z,7.72
2022-09-03T07:03:47.801Z,8.05
2022-09-03T07:05:49.407Z,9.05
2022-09-03T07:07:50.945Z,6.75
2022-09-03T07:09:52.867Z,9.68
2022-09-03T07:11:54.737Z,7.32
2022-09-03T07:13:58.050Z,7.00
2022-09-03T07:16:02.078Z,11.15
2022-09-03T07:18:03.875Z,11.10
2022-09-03T07:20:05.744Z,6.97
2022-09-03T07:22:08.407Z,10.20
2022-09-03T07:24:10.515Z,8.07
2022-09-03T07:26:17.714Z,8.05
2022-09-03T07:28:19.341Z,6.65
2022-09-03T07:30:21.000Z,7.60
2022-09-03T07:32:22.538Z,6.45
2022-09-03T07:34:27.173Z,12.73
2022-09-03T07:36:35.268Z,11.13
2022-09-03T07:38:37.174Z,5.68
2022-09-03T07:40:39.579Z,6.55
2022-09-03T07:42:41.509Z,7.85
2022-09-03T07:44:43.167Z,9.82
2022-09-03T07:46:46.248Z,10.50
2022-09-03T07:48:49.115Z,7.45
2022-09-03T07:50:51.133Z,6.75
2022-09-03T07:52:59.166Z,7.15
2022-09-03T07:55:00.729Z,8.35
2022-09-03T07:57:02.362Z,6.40
2022-09-03T07:59:04.520Z,10.05
2022-09-03T08:01:28.774Z,9.98
2022-09-03T08:03:30.376Z,8.27
2022-09-03T08:05:33.233Z,8.27
2022-09-03T08:07:34.799Z,8.95
2022-09-03T08:09:36.354Z,10.95
2022-09-03T08:11:39.984Z,11.32
2022-09-03T08:13:44.009Z,9.30
2022-09-03T08:15:54.978Z,7.20
2022-09-03T08:17:59.635Z,6.80
2022-09-03T08:20:05.781Z,8.50
2022-09-03T08:22:07.517Z,8.15
2022-09-03T08:24:09.591Z,8.50
2022-09-03T08:26:11.665Z,7.53
2022-09-03T08:28:13.235Z,11.02
2022-09-03T08:30:14.928Z,7.47
2022-09-03T08:32:16.485Z,9.57
2022-09-03T08:34:18.235Z,6.05
2022-09-03T08:36:22.860Z,5.97
2022-09-03T08:38:25.203Z,7.85
2022-09-03T08:40:26.878Z,8.95
2022-09-03T08:42:49.375Z,11.93
2022-09-03T08:44:59.728Z,9.07
2022-09-03T08:47:05.896Z,6.13
2022-09-03T08:49:10.562Z,8.40
2022-09-03T08:51:12.771Z,9.43
2022-09-03T08:53:36.735Z,8.65
2022-09-03T08:55:45.043Z,8.20
2022-09-03T08:57:49.512Z,6.18
2022-09-03T08:59:54.413Z,6.28
2022-09-03T09:02:10.898Z,7.85
2022-09-03T09:04:32.041Z,8.23
2022-09-03T09:06:59.066Z,5.10
2022-09-03T09:09:30.468Z,8.57
2022-09-03T09:11:56.507Z,8.20
2022-09-03T09:14:16.349Z,9.30
2022-09-03T09:18:52.494Z,4.40
2022-09-03T09:21:07.735Z,8.27
2022-09-03T09:23:15.412Z,8.43
2022-09-03T09:25:22.374Z,11.52
2022-09-03T09:27:24.584Z,10.30
2022-09-03T09:29:28.750Z,10.15
2022-09-03T09:31:31.009Z,9.77
2022-09-03T09:33:33.229Z,9.60
2022-09-03T09:35:37.059Z,7.20
2022-09-03T09:37:52.940Z,9.98
2022-09-03T09:39:59.790Z,6.60
2022-09-03T09:42:09.453Z,6.05
2022-09-03T09:44:20.157Z,7.03
2022-09-03T09:46:24.546Z,8.63
2022-09-03T09:48:31.784Z,7.32
2022-09-03T09:50:33.441Z,5.18
2022-09-03T09:52:35.248Z,7.38
2022-09-03T09:54:36.801Z,6.90
2022-09-03T09:56:38.340Z,6.63
2022-09-03T09:58:40.148Z,15.20
2022-09-03T10:00:42.911Z,12.70
2022-09-03T10:02:52.139Z,7.30
2022-09-03T10:05:15.886Z,7.70
2022-09-03T10:07:24.977Z,7.97
2022-09-03T10:09:31.184Z,9.30
2022-09-03T10:11:37.089Z,5.57
2022-09-03T10:13:44.234Z,6.63
2022-09-03T10:16:15.072Z,6.97
2022-09-03T10:18:38.065Z,9.30
2022-09-03T10:20:47.383Z,7.78
2022-09-03T10:22:56.949Z,9.57
2022-09-03T10:25:01.126Z,8.15
2022-09-03T10:27:02.726Z,8.75
2022-09-03T10:29:06.480Z,9.18
2022-09-03T10:31:25.985Z,10.75
2022-09-03T10:33:33.583Z,8.10
2022-09-03T10:35:38.223Z,8.75
2022-09-03T10:37:41.081Z,9.30
2022-09-03T10:40:06.945Z,10.90
2022-09-03T10:42:45.806Z,11.88
2022-09-03T10:45:01.789Z,9.50
2022-09-03T10:47:12.909Z,8.18
2022-09-03T10:49:23.535Z,7.55
2022-09-03T10:51:49.375Z,10.07
2022-09-03T10:54:12.875Z,5.47
2022-09-03T10:56:37.539Z,7.00
2022-09-03T10:58:51.380Z,10.40
2022-09-03T11:00:59.116Z,6.15
2022-09-03T11:03:07.406Z,5.63
2022-09-03T11:05:38.578Z,12.63
2022-09-03T11:07:44.635Z,12.20
2022-09-03T11:09:58.264Z,6.40
2022-09-03T11:12:12.088Z,6.72
2022-09-03T11:14:25.497Z,6.00
2022-09-03T11:16:31.733Z,7.43
2022-09-03T11:18:53.348Z,7.47
2022-09-03T11:21:01.945Z,7.55
2022-09-03T11:23:05.871Z,9.18
2022-09-03T11:25:08.873Z,9.90
2022-09-03T11:27:36.256Z,5.75
2022-09-03T11:29:46.175Z,9.50
2022-09-03T11:33:58.278Z,5.20
2022-09-03T11:36:01.779Z,7.28
2022-09-03T11:38:05.836Z,9.57
2022-09-03T11:40:18.333Z,8.07
2022-09-03T11:42:30.218Z,10.02
2022-09-03T11:44:42.691Z,10.32
2022-09-03T11:46:54.968Z,8.07
2022-09-03T11:49:09.497Z,8.95
2022-09-03T11:51:35.500Z,7.97
2022-09-03T11:53:37.102Z,5.88
2022-09-03T11:56:14.957Z,5.80
2022-09-03T11:58:27.365Z,7.72
2022-09-03T12:00:28.914Z,9.27
2022-09-03T12:02:35.982Z,6.00
2022-09-03T12:04:56.545Z,7.03
2022-09-03T12:07:02.902Z,4.80
2022-09-03T12:09:22.331Z,5.95
2022-09-03T12:11:54.289Z,11.02
2022-09-03T12:14:06.478Z,7.38
2022-09-03T12:16:23.061Z,6.25
2022-09-03T12:18:31.182Z,5.63
2022-09-03T12:20:32.751Z,7.80
2022-09-03T12:22:38.718Z,10.18
2022-09-03T12:24:42.954Z,6.07
2022-09-03T12:26:44.760Z,7.55
2022-09-03T12:28:49.109Z,5.72
2022-09-03T12:30:53.664Z,13.45
2022-09-03T12:33:05.177Z,9.52
2022-09-03T12:40:05.717Z,9.05
2022-09-03T12:42:14.490Z,13.30
2022-09-03T12:44:39.517Z,8.20
2022-09-03T12:46:41.821Z,6.03
2022-09-03T12:53:49.907Z,6.15
2022-09-03T12:55:57.233Z,7.47
2022-09-03T12:58:14.292Z,8.70
2022-09-03T13:00:17.242Z,13.68
2022-09-03T13:02:26.173Z,10.30
2022-09-03T13:04:30.221Z,5.75
2022-09-03T13:06:50.345Z,8.68
2022-09-03T13:08:54.570Z,7.97
2022-09-03T13:10:58.969Z,9.00
2022-09-03T13:13:02.796Z,7.95
2022-09-03T13:15:09.444Z,7.00
2022-09-03T13:17:24.638Z,9.93
2022-09-03T13:19:48.001Z,9.02
2022-09-03T13:22:04.811Z,7.25
2022-09-03T13:24:21.403Z,6.65
2022-09-03T13:26:41.596Z,7.20
2022-09-03T13:28:58.294Z,6.00
2022-09-03T13:31:03.665Z,8.48
2022-09-03T13:33:20.551Z,6.95
2022-09-03T13:35:39.787Z,7.72
2022-09-03T13:37:49.462Z,5.93
2022-09-03T13:40:04.246Z,9.55
2022-09-03T13:42:18.912Z,5.65
2022-09-03T13:44:33.060Z,4.28
2022-09-03T13:46:50.551Z,4.25
2022-09-03T13:49:16.448Z,6.95
2022-09-03T13:51:23.751Z,10.95
2022-09-03T13:53:36.785Z,6.30
2022-09-03T13:55:48.298Z,5.85
2022-09-03T13:57:58.336Z,7.78
2022-09-03T14:00:11.101Z,5.40
2022-09-03T14:02:33.809Z,5.47
2022-09-03T14:04:54.490Z,8.98
2022-09-03T14:07:06.948Z,4.90
2022-09-03T14:09:34.008Z,5.30
2022-09-03T14:11:55.195Z,8.70
2022-09-03T14:14:08.862Z,5.10
2022-09-03T14:16:31.568Z,5.40
2022-09-03T14:18:42.159Z,4.13
2022-09-03T14:21:03.743Z,2.30
2022-09-03T14:23:24.233Z,5.15
2022-09-03T14:25:27.219Z,6.35
2022-09-03T14:27:31.331Z,3.72
2022-09-03T14:29:35.030Z,5.30
2022-09-03T14:31:52.366Z,4.55
2022-09-03T14:34:06.265Z,9.43
2022-09-03T14:36:12.313Z,4.40
2022-09-03T14:38:13.880Z,3.65
2022-09-03T14:40:22.465Z,7.45
2022-09-03T14:42:57.942Z,6.22
2022-09-03T14:45:36.465Z,5.35
2022-09-03T14:47:50.008Z,5.20
2022-09-03T14:50:22.346Z,4.03
2022-09-03T14:52:53.003Z,3.75
2022-09-03T14:55:28.838Z,5.22
2022-09-03T14:57:45.585Z,2.58
2022-09-03T14:59:54.715Z,7.85
2022-09-03T15:02:25.532Z,4.70
2022-09-03T15:04:47.270Z,4.80
2022-09-03T15:06:57.722Z,7.07
2022-09-03T15:09:17.651Z,7.68
2022-09-03T15:13:36.374Z,6.82
2022-09-03T15:15:41.202Z,10.88
2022-09-03T15:17:53.201Z,7.03
2022-09-03T15:20:03.877Z,9.93
2022-09-03T15:22:35.138Z,8.43
2022-09-03T15:24:48.013Z,6.63
2022-09-03T15:27:12.056Z,5.05
2022-09-03T15:29:40.086Z,5.05
2022-09-03T15:32:19.656Z,8.93
2022-09-03T15:35:06.523Z,8.00
2022-09-03T15:37:17.758Z,7.45
2022-09-03T15:39:29.635Z,6.57
2022-09-03T15:41:37.092Z,5.80
2022-09-03T15:43:39.322Z,6.40
2022-09-03T15:45:49.558Z,4.90
2022-09-03T15:47:56.985Z,4.55
2022-09-03T15:50:01.800Z,4.68
2022-09-03T15:52:48.660Z,4.85
2022-09-03T15:55:08.379Z,5.75
2022-09-03T15:57:18.289Z,4.95
2022-09-03T16:01:32.481Z,3.30
2022-09-03T16:03:45.504Z,4.05
2022-09-03T16:05:59.707Z,5.97
2022-09-03T16:08:25.679Z,4.85
2022-09-03T16:11:10.092Z,6.35
2022-09-03T16:13:51.997Z,8.30
2022-09-03T16:16:28.304Z,7.07
2022-09-03T16:18:30.539Z,5.32
2022-09-03T16:20:48.624Z,9.60
2022-09-03T16:23:12.093Z,13.65
2022-09-03T16:25:18.672Z,13.70
2022-09-03T16:27:25.926Z,12.82
2022-09-03T16:29:30.926Z,10.13
2022-09-03T16:31:41.706Z,12.85
2022-09-03T16:33:47.618Z,10.45
2022-09-03T16:36:07.383Z,10.95
2022-09-03T16:38:32.771Z,9.63
2022-09-03T16:40:49.348Z,7.85
2022-09-03T16:43:39.715Z,9.10
2022-09-03T16:46:15.031Z,9.90
2022-09-03T16:48:31.901Z,10.02
2022-09-03T16:50:53.252Z,10.90
2022-09-03T16:53:10.596Z,10.60
2022-09-03T16:55:25.972Z,15.52
2022-09-03T16:57:54.519Z,23.10
2022-09-03T17:00:11.782Z,18.42
2022-09-03T17:02:47.345Z,19.00
2022-09-03T17:04:59.883Z,15.43
2022-09-03T17:07:30.965Z,15.05
2022-09-03T17:09:44.744Z,16.25
2022-09-03T17:12:03.075Z,20.45
2022-09-03T17:14:10.444Z,23.45
2022-09-03T17:16:30.462Z,24.15
2022-09-03T17:19:01.795Z,20.27
2022-09-03T17:21:24.153Z,13.60
2022-09-03T17:23:50.148Z,15.98
2022-09-03T17:25:56.469Z,14.73
2022-09-03T17:28:25.052Z,17.30
2022-09-03T17:31:24.032Z,19.83
2022-09-03T17:33:36.492Z,20.13
2022-09-03T17:35:42.170Z,45.60
2022-09-03T17:37:57.307Z,15.45
2022-09-03T17:40:15.918Z,38.55
2022-09-03T17:42:28.926Z,17.73
2022-09-03T17:44:42.115Z,17.58
2022-09-03T17:47:12.528Z,10.25
2022-09-03T17:49:24.939Z,9.82
2022-09-03T17:52:00.890Z,9.75
2022-09-03T17:54:16.574Z,15.82
2022-09-03T17:56:31.423Z,9.43
2022-09-03T17:58:41.129Z,9.35
2022-09-03T18:01:15.875Z,15.43
2022-09-03T18:03:32.987Z,12.77
2022-09-03T18:05:42.567Z,98.32
2022-09-03T18:07:55.594Z,104.07
2022-09-03T18:10:21.938Z,94.10
2022-09-03T18:12:33.824Z,93.85
2022-09-03T18:14:49.719Z,95.60
2022-09-03T18:17:04.823Z,73.20
2022-09-03T18:19:06.577Z,39.45
2022-09-03T18:21:31.992Z,24.35
2022-09-03T18:24:21.044Z,21.00
2022-09-03T18:26:46.638Z,22.50
2022-09-03T18:29:14.943Z,38.88
2022-09-03T18:31:35.216Z,33.65
2022-09-03T18:33:55.831Z,76.22
2022-09-03T18:36:17.797Z,91.95
2022-09-03T18:38:46.781Z,53.22
2022-09-03T18:41:27.165Z,38.73
2022-09-03T18:43:57.798Z,16.30
2022-09-03T18:49:47.177Z,17.67
2022-09-03T18:52:23.233Z,14.27
2022-09-03T18:55:07.778Z,14.68
2022-09-03T18:57:44.355Z,16.90
2022-09-03T19:00:29.101Z,16.83
2022-09-03T19:03:16.260Z,13.82
2022-09-03T19:05:49.591Z,17.33
2022-09-03T19:08:21.836Z,12.55
2022-09-03T19:10:48.121Z,11.88
2022-09-03T19:13:30.422Z,11.70
2022-09-03T19:15:56.506Z,15.13
2022-09-03T19:18:38.864Z,15.85
2022-09-03T19:21:06.779Z,16.05
2022-09-03T19:23:28.817Z,19.58
2022-09-03T19:25:49.561Z,15.15
2022-09-03T19:28:21.723Z,16.35
2022-09-03T19:31:13.991Z,16.83
2022-09-03T19:33:51.665Z,16.73
2022-09-03T19:36:17.770Z,14.90
2022-09-03T19:39:10.683Z,14.98
2022-09-03T19:41:51.240Z,12.77
2022-09-03T19:44:35.245Z,13.52
2022-09-03T19:47:15.407Z,13.55
2022-09-03T19:49:45.032Z,12.55
2022-09-03T19:52:16.613Z,13.60
2022-09-03T19:54:41.512Z,8.07
2022-09-03T19:57:02.981Z,9.63
2022-09-03T19:59:28.413Z,8.93
2022-09-03T20:01:53.429Z,15.20
2022-09-03T20:04:15.610Z,11.27
2022-09-03T20:06:36.159Z,8.18
2022-09-03T20:08:57.100Z,8.73
2022-09-03T20:11:00.980Z,9.60
2022-09-03T20:13:08.463Z,8.70
2022-09-03T20:15:10.546Z,8.32
2022-09-03T20:17:35.865Z,13.18
2022-09-03T20:19:59.361Z,13.82
2022-09-03T20:22:31.241Z,10.70
2022-09-03T20:24:50.617Z,10.48
2022-09-03T20:27:27.176Z,14.57
2022-09-03T20:29:49.004Z,21.38
2022-09-03T20:32:32.173Z,17.40
2022-09-03T20:34:53.002Z,15.98
2022-09-03T20:37:11.858Z,14.98
2022-09-03T20:39:26.204Z,11.63
2022-09-03T20:41:57.984Z,10.52
2022-09-03T20:44:15.333Z,11.48
2022-09-03T20:46:30.136Z,10.45
2022-09-03T20:48:49.390Z,9.43
2022-09-03T20:50:56.735Z,8.25
2022-09-03T20:53:38.196Z,7.53
2022-09-03T20:55:44.433Z,11.82
2022-09-03T20:58:01.149Z,9.32
2022-09-03T21:00:10.986Z,6.22
2022-09-03T21:04:31.312Z,7.40
2022-09-03T21:07:06.374Z,7.45
2022-09-03T21:09:48.534Z,6.13
2022-09-03T21:12:07.390Z,6.72
2022-09-03T21:14:21.249Z,6.10
2022-09-03T21:16:58.089Z,5.82
2022-09-03T21:19:16.785Z,7.93
2022-09-03T21:21:36.070Z,6.65
2022-09-03T21:23:44.226Z,8.02
2022-09-03T21:25:53.235Z,6.55
2022-09-03T21:27:57.806Z,7.77
2022-09-03T21:30:02.045Z,6.68
2022-09-03T21:32:30.530Z,8.00
2022-09-03T21:35:03.987Z,9.02
2022-09-03T21:37:06.239Z,9.07
2022-09-03T21:39:13.902Z,9.65
2022-09-03T21:41:35.904Z,7.22
2022-09-03T21:43:44.293Z,6.88
2022-09-03T21:46:15.406Z,6.65
2022-09-03T21:48:22.307Z,6.53
2022-09-03T21:50:31.797Z,12.52
2022-09-03T21:52:42.333Z,7.25
2022-09-03T21:54:43.911Z,8.00
2022-09-03T21:57:03.550Z,7.50
2022-09-03T21:59:32.624Z,10.05
2022-09-03T22:02:04.605Z,7.57
2022-09-03T22:04:06.265Z,8.18
2022-09-03T22:06:16.215Z,10.65
2022-09-03T22:10:35.343Z,9.02
2022-09-03T22:12:39.444Z,6.90
2022-09-03T22:14:48.023Z,9.20
2022-09-03T22:16:54.599Z,8.60
2022-09-03T22:18:56.350Z,8.60
2022-09-03T22:21:23.628Z,7.28
2022-09-03T22:23:31.358Z,9.45
2022-09-03T22:26:07.445Z,7.95
2022-09-03T22:28:15.686Z,9.63
2022-09-03T22:30:20.063Z,7.60
2022-09-03T22:32:42.068Z,9.65
2022-09-03T22:35:09.550Z,10.90
2022-09-03T22:37:31.053Z,8.85
2022-09-03T22:39:36.651Z,8.57
2022-09-03T22:42:01.483Z,8.38
2022-09-03T22:44:14.322Z,8.73
2022-09-03T22:46:20.571Z,7.25
2022-09-03T22:48:24.831Z,10.30
2022-09-03T22:50:37.076Z,9.32
2022-09-03T22:52:42.228Z,8.82
2022-09-03T22:55:08.168Z,8.13
2022-09-03T22:57:10.999Z,7.80
2022-09-03T22:59:37.577Z,8.18
2022-09-03T23:01:56.807Z,10.45
2022-09-03T23:04:07.543Z,7.85
2022-09-03T23:06:27.029Z,7.80
2022-09-03T23:08:42.028Z,11.75
2022-09-03T23:11:01.133Z,9.02
2022-09-03T23:13:16.119Z,11.35
2022-09-03T23:15:26.019Z,9.73
2022-09-03T23:19:40.965Z,9.88
2022-09-03T23:22:00.336Z,8.85
2022-09-03T23:24:06.397Z,13.20
2022-09-03T23:26:27.145Z,11.18
2022-09-03T23:28:38.332Z,11.10
2022-09-03T23:30:41.300Z,11.35
2022-09-03T23:32:43.965Z,11.63
2022-09-03T23:34:45.619Z,14.82
2022-09-03T23:37:35.328Z,11.98
2022-09-03T23:42:15.031Z,12.98
2022-09-03T23:44:40.960Z,12.35
2022-09-03T23:47:23.866Z,12.93
2022-09-03T23:49:41.819Z,12.48
2022-09-03T23:51:54.320Z,12.35
2022-09-03T23:54:20.225Z,11.48
2022-09-03T23:56:27.393Z,13.23
2022-09-03T23:58:52.111Z,10.15
